Time;durP1;ratioP1;P1;durP2;ratioP2;P2;SDS_P1;SDS_P2;PMS_P1;PMS_P2;Temp;Humidity;BMP_temperature;BMP_pressure;BME280_temperature;BME280_humidity;BME280_pressure;Samples;Min_cycle;Max_cycle;Signal;HPM_P1;HPM_P2
2022/06/08 00:01:49;;;;;;;;;;;16.40;99.90;;;;;;5075778;28;20369;-76
2022/06/08 00:04:16;;;;;;;;;;;16.40;99.90;;;;;;5075847;28;19915;-75
2022/06/08 00:06:42;;;;;;;;;;;16.40;99.90;;;;;;5075866;28;19915;-75
2022/06/08 00:09:08;;;;;;;;;;;16.40;99.90;;;;;;5075842;28;20285;-75
2022/06/08 00:11:34;;;;;;;;;;;16.50;99.90;;;;;;5075736;28;19908;-76
2022/06/08 00:14:00;;;;;;;;;;;16.50;99.90;;;;;;5075927;28;20391;-77
2022/06/08 00:16:25;;;;;;;;;;;16.50;99.90;;;;;;5075729;28;19912;-75
2022/06/08 00:18:51;;;;;;;;;;;16.50;99.90;;;;;;5075638;28;19908;-75
2022/06/08 00:21:16;;;;;;;;;;;16.50;99.90;;;;;;5075926;28;19912;-76
2022/06/08 00:23:43;;;;;;;;;;;16.50;99.90;;;;;;5075528;28;19908;-75
2022/06/08 00:26:08;;;;;;;;;;;16.50;99.90;;;;;;5075530;28;20319;-75
2022/06/08 00:28:34;;;;;;;;;;;16.50;99.90;;;;;;5074140;28;19908;-76
2022/06/08 00:31:00;;;;;;;;;;;16.50;99.90;;;;;;5074107;28;19908;-76
2022/06/08 00:33:25;;;;;;;;;;;16.60;99.90;;;;;;5075559;28;19916;-75
2022/06/08 00:35:51;;;;;;;;;;;16.50;99.90;;;;;;5075294;28;19909;-75
2022/06/08 00:38:17;;;;;;;;;;;16.60;99.90;;;;;;5074751;28;20411;-76
2022/06/08 00:40:42;;;;;;;;;;;16.70;99.90;;;;;;5075588;28;19993;-76
2022/06/08 00:43:08;;;;;;;;;;;16.70;99.90;;;;;;5074463;28;20356;-76
2022/06/08 00:45:33;;;;;;;;;;;16.70;99.90;;;;;;5075131;28;19916;-76
2022/06/08 00:48:01;;;;;;;;;;;16.70;99.90;;;;;;5075220;28;19958;-75
2022/06/08 00:50:30;;;;;;;;;;;16.70;99.90;;;;;;5074934;28;19912;-76
2022/06/08 00:52:57;;;;;;;;;;;16.70;99.90;;;;;;5075362;28;19920;-77
2022/06/08 00:55:24;;;;;;;;;;;16.70;99.90;;;;;;5074881;28;19958;-76
2022/06/08 00:58:01;;;;;;;;;;;16.70;99.90;;;;;;5074936;28;19917;-77
2022/06/08 01:00:32;;;;;;;;;;;16.80;99.90;;;;;;5074702;28;20312;-76
2022/06/08 01:02:58;;;;;;;;;;;16.70;99.90;;;;;;5074767;28;19908;-75
2022/06/08 01:05:31;;;;;;;;;;;16.70;99.90;;;;;;5073418;28;19909;-75
2022/06/08 01:07:58;;;;;;;;;;;16.80;99.90;;;;;;5074952;28;20003;-76
2022/06/08 01:10:29;;;;;;;;;;;16.70;99.90;;;;;;5074556;28;20281;-79
2022/06/08 01:12:57;;;;;;;;;;;16.70;99.90;;;;;;5074458;28;19914;-77
2022/06/08 01:15:25;;;;;;;;;;;16.80;99.90;;;;;;5074694;28;19909;-76
2022/06/08 01:17:50;;;;;;;;;;;16.80;99.90;;;;;;5074538;28;19916;-75
2022/06/08 01:20:16;;;;;;;;;;;16.80;99.90;;;;;;5074520;28;19916;-76
2022/06/08 01:22:42;;;;;;;;;;;16.80;99.90;;;;;;5074423;28;19915;-76
2022/06/08 01:25:09;;;;;;;;;;;16.90;99.90;;;;;;5074754;28;19908;-75
2022/06/08 01:28:03;;;;;;;;;;;16.90;99.90;;;;;;5074510;28;20065;-77
2022/06/08 01:30:40;;;;;;;;;;;16.90;99.90;;;;;;5056649;28;19909;-76
2022/06/08 01:33:23;;;;;;;;;;;16.90;99.90;;;;;;5074239;28;19958;-75
2022/06/08 01:36:11;;;;;;;;;;;16.90;99.90;;;;;;5074129;28;20323;-76
2022/06/08 01:38:47;;;;;;;;;;;16.90;99.90;;;;;;5074222;28;19920;-76
2022/06/08 01:41:16;;;;;;;;;;;16.90;99.90;;;;;;5074054;28;19956;-76
2022/06/08 01:43:43;;;;;;;;;;;16.80;99.90;;;;;;5072046;28;20292;-75
2022/06/08 01:46:35;;;;;;;;;;;16.90;99.90;;;;;;5073971;28;19909;-76
2022/06/08 01:49:03;;;;;;;;;;;16.80;99.90;;;;;;5042900;28;19915;-76
2022/06/08 01:51:41;;;;;;;;;;;16.70;99.90;;;;;;5073895;28;19915;-75
2022/06/08 01:54:12;;;;;;;;;;;16.70;99.90;;;;;;5073725;28;20019;-75
2022/06/08 01:56:53;;;;;;;;;;;16.70;99.90;;;;;;5073939;28;20281;-76
2022/06/08 01:59:37;;;;;;;;;;;16.70;99.90;;;;;;5072579;28;20377;-75
2022/06/08 02:02:12;;;;;;;;;;;16.70;99.90;;;;;;5074099;28;19912;-76
2022/06/08 02:04:40;;;;;;;;;;;16.70;99.90;;;;;;5073738;28;19908;-77
2022/06/08 02:07:13;;;;;;;;;;;16.80;99.90;;;;;;5073812;28;19908;-76
2022/06/08 02:10:04;;;;;;;;;;;16.70;99.90;;;;;;5073826;28;20280;-75
2022/06/08 02:12:31;;;;;;;;;;;16.70;99.90;;;;;;5034576;28;19913;-75
2022/06/08 02:15:00;;;;;;;;;;;16.70;99.90;;;;;;5073605;28;19909;-76
2022/06/08 02:18:01;;;;;;;;;;;16.80;99.90;;;;;;5073703;28;19908;-75
2022/06/08 02:20:29;;;;;;;;;;;16.70;99.90;;;;;;4992295;28;19945;-76
2022/06/08 02:22:56;;;;;;;;;;;16.70;99.90;;;;;;5053366;28;19908;-76
2022/06/08 02:25:28;;;;;;;;;;;16.70;99.90;;;;;;5072263;28;19991;-76
2022/06/08 02:28:06;;;;;;;;;;;16.60;99.90;;;;;;5073549;28;19908;-75
2022/06/08 02:30:36;;;;;;;;;;;16.50;99.90;;;;;;5073915;28;19908;-75
2022/06/08 02:36:01;;;;;;;;;;;16.50;99.90;;;;;;5073793;28;19916;-75
2022/06/08 02:38:39;;;;;;;;;;;16.50;99.90;;;;;;5073138;28;19932;-76
2022/06/08 02:41:07;;;;;;;;;;;16.50;99.90;;;;;;5073537;28;19923;-76
2022/06/08 02:43:36;;;;;;;;;;;16.60;99.90;;;;;;5073380;28;19916;-76
2022/06/08 02:46:20;;;;;;;;;;;16.60;99.90;;;;;;5073351;28;19908;-75
2022/06/08 02:48:46;;;;;;;;;;;16.60;99.90;;;;;;5073313;28;19999;-76
2022/06/08 02:51:12;;;;;;;;;;;16.70;99.90;;;;;;5073313;28;20399;-77
2022/06/08 02:53:42;;;;;;;;;;;16.60;99.90;;;;;;5073378;28;19909;-76
2022/06/08 02:56:08;;;;;;;;;;;16.50;99.90;;;;;;5073290;28;19995;-75
2022/06/08 02:58:46;;;;;;;;;;;16.50;99.90;;;;;;5073246;28;19952;-76
2022/06/08 03:01:15;;;;;;;;;;;16.60;99.90;;;;;;5073169;28;19999;-76
2022/06/08 03:03:55;;;;;;;;;;;16.60;99.90;;;;;;5073256;28;19914;-76
2022/06/08 03:06:23;;;;;;;;;;;16.60;99.90;;;;;;5073696;28;19909;-76
2022/06/08 03:08:57;;;;;;;;;;;16.70;99.90;;;;;;5077170;28;19961;-76
2022/06/08 03:11:24;;;;;;;;;;;16.70;99.90;;;;;;5076804;28;20368;-76
2022/06/08 03:13:52;;;;;;;;;;;16.80;99.90;;;;;;5076863;28;19909;-75
2022/06/08 03:16:28;;;;;;;;;;;16.70;99.90;;;;;;5076802;28;19915;-77
2022/06/08 03:18:54;;;;;;;;;;;16.70;99.90;;;;;;5075445;28;19916;-76
2022/06/08 03:21:19;;;;;;;;;;;16.60;99.90;;;;;;5076757;28;19912;-76
2022/06/08 03:23:46;;;;;;;;;;;16.50;99.90;;;;;;5075361;28;19909;-75
2022/06/08 03:26:12;;;;;;;;;;;16.60;99.90;;;;;;5076526;28;19916;-76
2022/06/08 03:28:38;;;;;;;;;;;16.50;99.90;;;;;;5076583;28;19908;-76
2022/06/08 03:31:03;;;;;;;;;;;16.50;99.90;;;;;;5076529;28;19997;-76
2022/06/08 03:33:29;;;;;;;;;;;16.60;99.90;;;;;;5075525;28;19916;-75
2022/06/08 03:35:54;;;;;;;;;;;16.70;99.90;;;;;;5076580;28;19908;-77
2022/06/08 03:38:20;;;;;;;;;;;16.60;99.90;;;;;;5075937;28;19920;-76
2022/06/08 03:40:45;;;;;;;;;;;16.60;99.90;;;;;;5076303;28;20386;-76
2022/06/08 03:43:11;;;;;;;;;;;16.50;99.90;;;;;;5076328;28;19947;-75
2022/06/08 03:45:40;;;;;;;;;;;16.40;99.90;;;;;;5076409;28;19931;-76
2022/06/08 03:48:07;;;;;;;;;;;16.40;99.90;;;;;;5076232;28;20305;-76
2022/06/08 03:50:32;;;;;;;;;;;16.40;99.90;;;;;;5076277;28;19922;-76
2022/06/08 03:53:07;;;;;;;;;;;16.40;99.90;;;;;;5076130;28;19908;-77
2022/06/08 03:55:34;;;;;;;;;;;16.40;99.90;;;;;;5076131;28;19916;-77
2022/06/08 03:58:01;;;;;;;;;;;16.30;99.90;;;;;;5076372;28;20434;-76
2022/06/08 04:00:27;;;;;;;;;;;16.40;99.90;;;;;;5075966;28;20281;-76
2022/06/08 04:02:53;;;;;;;;;;;16.40;99.90;;;;;;5075978;28;20423;-76
2022/06/08 04:05:19;;;;;;;;;;;16.40;99.90;;;;;;5075928;28;19908;-76
2022/06/08 04:07:44;;;;;;;;;;;16.30;99.90;;;;;;5076171;28;19957;-76
2022/06/08 04:10:11;;;;;;;;;;;16.30;99.90;;;;;;5075858;28;19912;-76
2022/06/08 04:12:36;;;;;;;;;;;16.40;99.90;;;;;;5074419;28;19913;-76
2022/06/08 04:15:02;;;;;;;;;;;16.40;99.90;;;;;;5075914;28;19908;-75
2022/06/08 04:17:28;;;;;;;;;;;16.40;99.90;;;;;;5075412;28;19909;-77
2022/06/08 04:19:53;;;;;;;;;;;16.40;99.90;;;;;;5073473;28;20011;-76
2022/06/08 04:22:20;;;;;;;;;;;16.40;99.90;;;;;;5074218;28;20292;-76
2022/06/08 04:24:46;;;;;;;;;;;16.30;99.90;;;;;;5075538;28;19909;-77
2022/06/08 04:27:12;;;;;;;;;;;16.20;99.90;;;;;;5075694;28;19959;-78
2022/06/08 04:29:38;;;;;;;;;;;16.20;99.90;;;;;;5074179;28;19956;-77
2022/06/08 04:32:05;;;;;;;;;;;16.10;99.90;;;;;;5075356;28;19908;-76
2022/06/08 04:34:31;;;;;;;;;;;16.10;99.90;;;;;;5075341;28;19909;-77
2022/06/08 04:36:56;;;;;;;;;;;16.00;99.90;;;;;;5075256;28;19924;-76
2022/06/08 04:39:22;;;;;;;;;;;16.10;99.90;;;;;;5075487;28;19915;-77
2022/06/08 04:41:48;;;;;;;;;;;16.00;99.90;;;;;;5073857;28;19961;-76
2022/06/08 04:44:13;;;;;;;;;;;15.90;99.90;;;;;;5075165;28;20365;-76
2022/06/08 04:46:40;;;;;;;;;;;15.80;99.90;;;;;;5075275;28;19997;-78
2022/06/08 04:49:06;;;;;;;;;;;15.70;99.90;;;;;;5073794;28;20503;-77
2022/06/08 04:51:33;;;;;;;;;;;15.70;99.90;;;;;;5075156;28;19944;-77
2022/06/08 04:53:59;;;;;;;;;;;15.70;99.90;;;;;;5073662;28;20391;-77
2022/06/08 04:56:25;;;;;;;;;;;15.80;99.90;;;;;;5074923;28;20007;-78
2022/06/08 04:58:53;;;;;;;;;;;15.70;99.90;;;;;;5074873;28;19908;-77
2022/06/08 05:01:18;;;;;;;;;;;15.60;99.90;;;;;;5074888;28;19913;-77
2022/06/08 05:03:44;;;;;;;;;;;15.70;99.90;;;;;;5074821;28;19909;-78
2022/06/08 05:06:09;;;;;;;;;;;15.70;99.90;;;;;;5074700;28;19915;-77
2022/06/08 05:08:35;;;;;;;;;;;15.70;99.90;;;;;;5074695;28;19915;-77
2022/06/08 05:11:04;;;;;;;;;;;15.70;99.90;;;;;;5074910;28;19916;-77
2022/06/08 05:13:30;;;;;;;;;;;15.70;99.90;;;;;;5074671;28;20341;-78
2022/06/08 05:15:56;;;;;;;;;;;15.80;99.90;;;;;;5074500;28;19916;-78
2022/06/08 05:18:22;;;;;;;;;;;15.80;99.90;;;;;;5074534;28;20285;-77
2022/06/08 05:20:48;;;;;;;;;;;16.10;99.90;;;;;;5073107;28;19912;-78
2022/06/08 05:23:19;;;;;;;;;;;16.30;99.90;;;;;;5074318;28;19916;-79
2022/06/08 05:25:45;;;;;;;;;;;16.50;99.90;;;;;;5074369;28;19931;-78
2022/06/08 05:28:13;;;;;;;;;;;16.50;99.90;;;;;;5074311;28;20361;-78
2022/06/08 05:30:39;;;;;;;;;;;16.50;99.90;;;;;;5072576;28;19908;-77
2022/06/08 05:33:04;;;;;;;;;;;16.50;99.90;;;;;;5074218;28;20003;-77
2022/06/08 05:35:30;;;;;;;;;;;16.40;99.90;;;;;;5074121;28;19912;-77
2022/06/08 05:37:56;;;;;;;;;;;16.30;99.90;;;;;;5074061;28;20316;-78
2022/06/08 05:40:22;;;;;;;;;;;16.30;99.90;;;;;;5074115;28;19912;-78
2022/06/08 05:42:48;;;;;;;;;;;16.30;99.90;;;;;;5074192;28;20003;-79
2022/06/08 05:45:18;;;;;;;;;;;16.40;99.90;;;;;;5074068;28;20372;-78
2022/06/08 05:47:44;;;;;;;;;;;16.50;99.90;;;;;;5074003;28;19912;-79
2022/06/08 05:50:09;;;;;;;;;;;16.70;99.90;;;;;;5073970;28;19951;-79
2022/06/08 05:52:35;;;;;;;;;;;16.80;99.90;;;;;;5074211;28;19963;-78
2022/06/08 05:55:01;;;;;;;;;;;17.00;99.90;;;;;;5074095;28;20396;-79
2022/06/08 05:57:26;;;;;;;;;;;17.00;99.90;;;;;;5072606;28;19913;-79
2022/06/08 05:59:52;;;;;;;;;;;17.30;99.90;;;;;;5073825;28;19908;-79
2022/06/08 06:02:17;;;;;;;;;;;17.40;99.90;;;;;;5073726;28;19916;-79
2022/06/08 06:04:43;;;;;;;;;;;17.40;99.90;;;;;;5073906;28;19931;-79
2022/06/08 06:07:10;;;;;;;;;;;17.20;99.90;;;;;;5073790;28;19962;-79
2022/06/08 06:09:36;;;;;;;;;;;17.10;99.90;;;;;;5073679;28;19999;-80
2022/06/08 06:12:01;;;;;;;;;;;17.00;99.90;;;;;;5072314;28;19999;-79
2022/06/08 06:14:27;;;;;;;;;;;16.70;99.90;;;;;;5073662;28;19966;-79
2022/06/08 06:16:52;;;;;;;;;;;16.60;99.90;;;;;;5073647;28;19908;-80
2022/06/08 06:19:18;;;;;;;;;;;16.50;99.90;;;;;;5073674;28;19919;-80
2022/06/08 06:21:44;;;;;;;;;;;16.40;99.90;;;;;;5073523;28;20334;-80
2022/06/08 06:24:10;;;;;;;;;;;16.30;99.90;;;;;;5074013;28;19916;-80
2022/06/08 06:26:35;;;;;;;;;;;16.20;99.90;;;;;;5073515;28;19909;-79
2022/06/08 06:29:01;;;;;;;;;;;16.30;99.90;;;;;;5073543;28;19954;-80
2022/06/08 06:31:34;;;;;;;;;;;16.30;99.90;;;;;;5073506;28;19913;-80
2022/06/08 06:33:59;;;;;;;;;;;16.50;99.90;;;;;;5073995;28;19984;-80
2022/06/08 06:36:25;;;;;;;;;;;16.90;99.90;;;;;;5073311;28;19928;-80
2022/06/08 06:38:52;;;;;;;;;;;17.10;99.90;;;;;;5073709;28;19916;-80
2022/06/08 06:41:18;;;;;;;;;;;17.30;99.90;;;;;;5073621;28;20386;-79
2022/06/08 06:43:44;;;;;;;;;;;17.60;99.90;;;;;;5077447;28;19909;-81
2022/06/08 06:46:11;;;;;;;;;;;17.80;99.90;;;;;;5077498;28;19953;-81
2022/06/08 06:48:36;;;;;;;;;;;17.90;99.90;;;;;;5077475;28;19958;-81
2022/06/08 06:51:03;;;;;;;;;;;18.10;99.90;;;;;;5077306;28;19909;-82
2022/06/08 06:53:29;;;;;;;;;;;18.30;99.90;;;;;;5077310;28;20285;-82
2022/06/08 06:55:55;;;;;;;;;;;18.60;99.90;;;;;;5075935;28;19915;-81
2022/06/08 06:58:21;;;;;;;;;;;18.90;99.90;;;;;;5077356;28;19908;-81
2022/06/08 07:00:46;;;;;;;;;;;19.00;99.90;;;;;;5075775;28;19917;-81
2022/06/08 07:03:12;;;;;;;;;;;18.80;99.90;;;;;;5075828;28;19908;-82
2022/06/08 07:05:38;;;;;;;;;;;18.80;99.90;;;;;;5077419;28;19909;-82
2022/06/08 07:08:05;;;;;;;;;;;18.80;99.90;;;;;;5077262;28;19915;-82
2022/06/08 07:10:30;;;;;;;;;;;18.80;99.90;;;;;;5077017;28;19908;-82
2022/06/08 07:12:56;;;;;;;;;;;18.70;99.90;;;;;;5075550;28;19920;-82
2022/06/08 07:15:23;;;;;;;;;;;18.60;99.90;;;;;;5077067;28;20426;-82
2022/06/08 07:17:49;;;;;;;;;;;18.50;99.90;;;;;;5075506;28;19912;-81
2022/06/08 07:20:15;;;;;;;;;;;18.50;99.90;;;;;;5076940;28;19908;-82
2022/06/08 07:22:40;;;;;;;;;;;18.70;99.90;;;;;;5076835;28;19908;-81
2022/06/08 07:25:07;;;;;;;;;;;18.40;99.90;;;;;;5076629;28;19944;-82
2022/06/08 07:27:33;;;;;;;;;;;18.40;99.90;;;;;;5077213;28;19909;-81
2022/06/08 07:29:59;;;;;;;;;;;18.60;99.90;;;;;;5076602;28;19958;-82
2022/06/08 07:32:25;;;;;;;;;;;18.70;99.90;;;;;;5076553;28;20293;-82
2022/06/08 07:34:51;;;;;;;;;;;18.80;99.90;;;;;;5076706;28;19940;-82
2022/06/08 07:37:16;;;;;;;;;;;18.90;99.90;;;;;;5076230;28;19967;-81
2022/06/08 07:39:42;;;;;;;;;;;18.80;99.90;;;;;;5076427;28;20372;-81
2022/06/08 07:42:07;;;;;;;;;;;18.70;99.90;;;;;;5076488;28;19912;-82
2022/06/08 07:44:33;;;;;;;;;;;18.90;99.90;;;;;;5076567;28;19959;-81
2022/06/08 07:46:59;;;;;;;;;;;18.90;99.90;;;;;;5075326;28;19995;-83
2022/06/08 07:49:37;;;;;;;;;;;19.00;99.90;;;;;;5076299;28;20393;-81
2022/06/08 07:52:08;;;;;;;;;;;19.00;99.90;;;;;;5076200;28;19908;-81
2022/06/08 07:54:33;;;;;;;;;;;19.00;99.90;;;;;;5076824;28;20019;-81
2022/06/08 07:57:00;;;;;;;;;;;19.20;99.90;;;;;;5076153;28;20373;-81
2022/06/08 07:59:27;;;;;;;;;;;19.20;99.90;;;;;;5076110;28;19913;-82
2022/06/08 08:01:53;;;;;;;;;;;18.80;99.90;;;;;;5076014;28;19912;-82
2022/06/08 08:04:19;;;;;;;;;;;21.40;99.90;;;;;;5075959;28;19909;-82
2022/06/08 08:06:45;;;;;;;;;;;25.40;99.90;;;;;;5074700;28;19962;-82
2022/06/08 08:09:17;;;;;;;;;;;26.50;99.90;;;;;;5075881;28;19908;-82
2022/06/08 08:11:45;;;;;;;;;;;25.10;97.90;;;;;;5076061;28;19948;-83
2022/06/08 08:14:13;;;;;;;;;;;24.30;99.90;;;;;;5075773;28;19915;-83
2022/06/08 08:16:45;;;;;;;;;;;23.80;99.90;;;;;;5074332;28;19915;-82
2022/06/08 08:19:12;;;;;;;;;;;23.70;99.90;;;;;;5075614;28;19912;-80
2022/06/08 08:21:38;;;;;;;;;;;22.90;99.90;;;;;;5075593;28;20438;-83
2022/06/08 08:24:04;;;;;;;;;;;22.40;99.90;;;;;;5075762;28;19908;-80
2022/06/08 08:26:30;;;;;;;;;;;21.90;99.90;;;;;;5074299;28;19908;-82
2022/06/08 08:28:57;;;;;;;;;;;21.40;99.90;;;;;;5075587;28;20294;-81
2022/06/08 08:31:22;;;;;;;;;;;21.00;99.90;;;;;;5075650;28;19908;-83
2022/06/08 08:33:48;;;;;;;;;;;20.60;99.90;;;;;;5075550;28;20428;-81
2022/06/08 08:36:14;;;;;;;;;;;20.40;99.90;;;;;;5075130;28;20373;-81
2022/06/08 08:38:39;;;;;;;;;;;20.30;99.90;;;;;;5075533;28;19912;-81
2022/06/08 08:42:20;;;;;;;;;;;20.20;99.90;;;;;;5075452;28;19935;-80
2022/06/08 08:43:51;;;;;;;;;;;21.50;99.90;;;;;;5074900;28;19909;-82
2022/06/08 08:46:32;;;;;;;;;;;23.30;99.90;;;;;;5075231;28;20417;-81
2022/06/08 08:49:11;;;;;;;;;;;25.00;99.70;;;;;;5075163;28;19987;-82
2022/06/08 08:51:41;;;;;;;;;;;25.80;95.90;;;;;;5075254;28;20070;-83
2022/06/08 08:54:17;;;;;;;;;;;25.70;95.10;;;;;;5075166;28;19963;-83
2022/06/08 08:56:42;;;;;;;;;;;26.10;94.50;;;;;;5074983;28;19908;-83
2022/06/08 08:59:12;;;;;;;;;;;26.60;93.90;;;;;;5075082;28;20266;-81
2022/06/08 09:01:38;;;;;;;;;;;27.10;91.70;;;;;;5074774;28;19912;-81
2022/06/08 09:04:04;;;;;;;;;;;26.50;90.80;;;;;;5074102;28;19954;-80
2022/06/08 09:06:33;;;;;;;;;;;26.30;90.30;;;;;;5074740;28;20319;-82
2022/06/08 09:09:02;;;;;;;;;;;26.50;85.60;;;;;;5074903;28;19916;-80
2022/06/08 09:11:32;;;;;;;;;;;26.80;87.40;;;;;;5074562;28;20003;-83
2022/06/08 09:14:01;;;;;;;;;;;27.10;89.50;;;;;;5074673;28;19995;-80
2022/06/08 09:16:39;;;;;;;;;;;27.00;85.20;;;;;;5074493;28;20323;-81
2022/06/08 09:19:31;;;;;;;;;;;26.60;84.90;;;;;;5074835;28;19956;-83
2022/06/08 09:22:03;;;;;;;;;;;25.60;85.90;;;;;;5070196;28;19934;-83
2022/06/08 09:24:34;;;;;;;;;;;24.00;93.80;;;;;;5073124;28;19908;-81
2022/06/08 09:27:12;;;;;;;;;;;25.00;91.80;;;;;;5074614;28;19954;-83
2022/06/08 09:29:47;;;;;;;;;;;25.80;92.10;;;;;;5074253;28;19908;-81
2022/06/08 09:32:49;;;;;;;;;;;26.00;92.10;;;;;;5072711;28;19916;-82
2022/06/08 09:35:17;;;;;;;;;;;26.20;88.90;;;;;;4992934;28;20486;-80
2022/06/08 09:37:44;;;;;;;;;;;26.70;84.70;;;;;;5059045;28;19927;-80
2022/06/08 09:40:36;;;;;;;;;;;26.30;82.30;;;;;;5074569;28;20335;-81
2022/06/08 09:43:01;;;;;;;;;;;25.70;82.10;;;;;;5073798;28;19977;-82
2022/06/08 09:45:29;;;;;;;;;;;26.00;79.60;;;;;;5072765;28;20084;-81
2022/06/08 09:54:02;;;;;;;;;;;26.70;70.70;;;;;;5073663;28;19917;-82
2022/06/08 09:56:34;;;;;;;;;;;25.80;74.70;;;;;;5074087;28;19923;-82
2022/06/08 09:59:15;;;;;;;;;;;26.20;72.00;;;;;;5072568;28;19993;-82
2022/06/08 10:01:59;;;;;;;;;;;26.00;71.60;;;;;;5073886;28;19913;-80
2022/06/08 10:04:34;;;;;;;;;;;25.40;74.30;;;;;;5073919;28;19917;-84
2022/06/08 10:07:02;;;;;;;;;;;24.70;74.10;;;;;;5073763;28;19955;-81
2022/06/08 10:09:37;;;;;;;;;;;25.80;76.10;;;;;;5074121;28;20053;-81
2022/06/08 10:12:05;;;;;;;;;;;27.70;71.40;;;;;;5073796;28;19948;-81
2022/06/08 10:14:52;;;;;;;;;;;28.40;68.40;;;;;;5073705;28;19915;-80
2022/06/08 10:17:20;;;;;;;;;;;27.60;66.20;;;;;;5073600;28;19909;-83
2022/06/08 10:19:52;;;;;;;;;;;26.50;65.90;;;;;;5074250;28;20369;-82
2022/06/08 10:22:18;;;;;;;;;;;27.70;67.10;;;;;;5073692;28;19912;-82
2022/06/08 10:24:45;;;;;;;;;;;28.40;65.10;;;;;;5073585;28;20444;-83
2022/06/08 10:27:13;;;;;;;;;;;28.80;62.70;;;;;;5073723;28;19916;-82
2022/06/08 10:29:42;;;;;;;;;;;26.70;62.70;;;;;;5072271;28;19947;-80
2022/06/08 10:32:08;;;;;;;;;;;26.40;66.10;;;;;;5073522;28;19946;-80
2022/06/08 10:34:35;;;;;;;;;;;26.70;66.30;;;;;;5073482;28;19962;-81
2022/06/08 10:37:13;;;;;;;;;;;25.80;67.30;;;;;;5073413;28;19928;-82
2022/06/08 10:39:39;;;;;;;;;;;25.50;67.30;;;;;;5073363;28;19908;-80
2022/06/08 10:45:00;;;;;;;;;;;25.10;70.10;;;;;;5073160;28;19915;-80
2022/06/08 10:47:37;;;;;;;;;;;24.80;70.00;;;;;;5073354;28;20265;-83
2022/06/08 10:50:03;;;;;;;;;;;25.30;68.80;;;;;;5073438;28;20007;-80
2022/06/08 10:52:39;;;;;;;;;;;24.90;68.20;;;;;;5073366;28;19915;-82
2022/06/08 10:55:17;;;;;;;;;;;24.80;70.30;;;;;;5071719;28;19908;-81
2022/06/08 10:57:43;;;;;;;;;;;26.40;67.40;;;;;;5073233;28;19908;-83
2022/06/08 11:00:26;;;;;;;;;;;28.10;64.30;;;;;;5073159;28;19908;-82
2022/06/08 11:03:03;;;;;;;;;;;28.00;60.90;;;;;;5071714;28;20388;-81
2022/06/08 11:05:32;;;;;;;;;;;28.20;60.20;;;;;;5073420;28;19962;-81
2022/06/08 11:08:01;;;;;;;;;;;28.70;58.70;;;;;;5073208;28;19930;-82
2022/06/08 11:10:42;;;;;;;;;;;29.20;58.10;;;;;;5073187;28;20266;-85
2022/06/08 11:13:23;;;;;;;;;;;29.50;59.10;;;;;;5073087;28;20395;-82
2022/06/08 11:15:51;;;;;;;;;;;28.60;59.60;;;;;;5071811;28;19908;-83
2022/06/08 11:18:26;;;;;;;;;;;27.50;61.00;;;;;;5072996;28;19948;-83
2022/06/08 11:20:56;;;;;;;;;;;27.30;62.20;;;;;;5072995;28;20003;-82
2022/06/08 11:23:29;;;;;;;;;;;28.60;61.70;;;;;;5073004;28;19931;-83
2022/06/08 11:26:04;;;;;;;;;;;29.50;58.40;;;;;;5073128;28;19918;-82
2022/06/08 11:28:30;;;;;;;;;;;29.50;58.80;;;;;;5075161;28;20249;-82
2022/06/08 11:30:57;;;;;;;;;;;28.90;59.00;;;;;;5076765;28;19958;-80
2022/06/08 11:33:43;;;;;;;;;;;29.20;59.50;;;;;;5076630;28;19944;-81
2022/06/08 11:36:31;;;;;;;;;;;29.30;58.90;;;;;;5076149;28;20292;-84
2022/06/08 11:39:16;;;;;;;;;;;30.30;57.60;;;;;;5076532;28;20441;-82
2022/06/08 11:41:44;;;;;;;;;;;29.20;58.60;;;;;;5076436;28;19916;-82
2022/06/08 11:44:12;;;;;;;;;;;27.70;58.70;;;;;;5076387;28;19914;-81
2022/06/08 11:46:40;;;;;;;;;;;26.30;60.70;;;;;;5076317;28;20426;-83
2022/06/08 11:49:25;;;;;;;;;;;25.40;63.70;;;;;;5075008;28;19908;-80
2022/06/08 11:51:50;;;;;;;;;;;25.10;65.50;;;;;;5076327;28;19909;-82
2022/06/08 11:54:32;;;;;;;;;;;26.30;65.70;;;;;;5076131;28;19912;-83
2022/06/08 11:57:04;;;;;;;;;;;28.20;63.30;;;;;;5076466;28;19909;-82
2022/06/08 11:59:34;;;;;;;;;;;30.40;60.60;;;;;;5076074;28;19909;-82
2022/06/08 12:02:01;;;;;;;;;;;30.70;58.80;;;;;;5076000;28;20318;-82
2022/06/08 12:04:30;;;;;;;;;;;31.10;57.00;;;;;;5076007;28;19995;-82
2022/06/08 12:06:56;;;;;;;;;;;32.40;55.40;;;;;;5076079;28;19908;-82
2022/06/08 12:09:27;;;;;;;;;;;32.00;54.40;;;;;;5075987;28;19912;-81
2022/06/08 12:12:03;;;;;;;;;;;31.70;53.70;;;;;;5075820;28;20394;-82
2022/06/08 12:14:36;;;;;;;;;;;31.20;55.30;;;;;;5075955;28;19909;-82
2022/06/08 12:17:22;;;;;;;;;;;29.90;57.90;;;;;;5075799;28;20380;-82
2022/06/08 12:19:56;;;;;;;;;;;29.90;57.40;;;;;;5074950;28;20365;-84
2022/06/08 12:22:24;;;;;;;;;;;31.80;56.80;;;;;;5074036;28;20054;-82
2022/06/08 12:25:22;;;;;;;;;;;32.10;55.70;;;;;;5075689;28;20392;-81
2022/06/08 12:27:57;;;;;;;;;;;30.90;55.90;;;;;;5031201;28;19915;-82
2022/06/08 12:30:35;;;;;;;;;;;31.20;56.50;;;;;;5075770;28;19908;-82
2022/06/08 12:33:16;;;;;;;;;;;31.50;55.60;;;;;;5075518;28;19909;-83
2022/06/08 12:35:53;;;;;;;;;;;30.50;55.80;;;;;;5075410;28;19947;-80
2022/06/08 12:38:21;;;;;;;;;;;30.60;55.90;;;;;;5074812;28;20404;-82
2022/06/08 12:41:16;;;;;;;;;;;31.50;55.60;;;;;;5074304;28;19913;-81
2022/06/08 12:43:52;;;;;;;;;;;30.70;55.20;;;;;;5057892;28;19908;-81
2022/06/08 12:46:25;;;;;;;;;;;28.70;56.70;;;;;;5075203;28;19955;-82
2022/06/08 12:48:54;;;;;;;;;;;29.30;57.20;;;;;;5073820;28;20265;-82
2022/06/08 12:51:40;;;;;;;;;;;30.40;57.60;;;;;;5075089;28;20037;-81
2022/06/08 12:54:11;;;;;;;;;;;30.00;55.20;;;;;;5060948;28;19916;-82
2022/06/08 12:56:37;;;;;;;;;;;30.60;54.70;;;;;;5075049;28;19908;-83
2022/06/08 12:59:02;;;;;;;;;;;30.60;54.10;;;;;;5074903;28;19916;-84
2022/06/08 13:01:29;;;;;;;;;;;31.10;52.70;;;;;;5075023;28;19912;-84
2022/06/08 13:03:55;;;;;;;;;;;30.80;54.50;;;;;;5074816;28;19999;-82
2022/06/08 13:06:20;;;;;;;;;;;30.60;53.40;;;;;;5074819;28;19966;-82
2022/06/08 13:08:48;;;;;;;;;;;31.40;53.30;;;;;;5074808;28;19909;-81
2022/06/08 13:11:16;;;;;;;;;;;31.90;52.10;;;;;;5074672;28;19943;-81
2022/06/08 13:13:43;;;;;;;;;;;31.00;53.00;;;;;;5074663;28;20026;-82
2022/06/08 13:16:24;;;;;;;;;;;29.50;54.10;;;;;;5074831;28;19916;-84
2022/06/08 13:18:50;;;;;;;;;;;28.70;55.30;;;;;;5074753;28;19909;-80
2022/06/08 13:21:15;;;;;;;;;;;28.80;56.00;;;;;;5074487;28;19999;-84
2022/06/08 13:23:42;;;;;;;;;;;28.70;55.30;;;;;;5074822;28;20399;-81
2022/06/08 13:26:13;;;;;;;;;;;29.60;55.10;;;;;;5074426;28;19912;-81
2022/06/08 13:28:39;;;;;;;;;;;29.20;55.20;;;;;;5074706;28;20309;-83
2022/06/08 13:31:09;;;;;;;;;;;28.10;56.30;;;;;;5074305;28;19951;-83
2022/06/08 13:36:18;;;;;;;;;;;29.10;55.40;;;;;;5074041;28;20012;-83
2022/06/08 13:38:45;;;;;;;;;;;28.50;56.60;;;;;;5072620;28;19948;-82
2022/06/08 13:41:10;;;;;;;;;;;29.10;56.10;;;;;;5074047;28;19912;-82
2022/06/08 13:43:36;;;;;;;;;;;29.50;54.70;;;;;;5074026;28;19915;-81
2022/06/08 13:46:02;;;;;;;;;;;28.10;56.10;;;;;;5074448;28;19909;-82
2022/06/08 13:48:27;;;;;;;;;;;27.50;58.80;;;;;;5074007;28;19959;-81
2022/06/08 13:50:53;;;;;;;;;;;27.00;58.90;;;;;;5073821;28;19908;-80
2022/06/08 13:53:21;;;;;;;;;;;26.80;60.10;;;;;;5074004;28;19915;-81
2022/06/08 13:55:49;;;;;;;;;;;26.30;59.70;;;;;;5073943;28;19912;-83
2022/06/08 13:58:15;;;;;;;;;;;26.70;60.20;;;;;;5073525;28;20369;-80
2022/06/08 14:00:49;;;;;;;;;;;26.80;60.70;;;;;;5073753;28;19919;-82
2022/06/08 14:03:17;;;;;;;;;;;27.10;60.60;;;;;;5072551;28;20007;-83
2022/06/08 14:13:59;;;;;;;;;;;28.10;57.40;;;;;;5073616;28;20418;-82
2022/06/08 14:16:25;;;;;;;;;;;29.80;56.00;;;;;;5074322;28;19912;-82
2022/06/08 14:18:53;;;;;;;;;;;28.90;54.20;;;;;;5073666;28;19908;-84
2022/06/08 14:21:19;;;;;;;;;;;28.00;55.60;;;;;;5073587;28;19913;-80
2022/06/08 14:23:46;;;;;;;;;;;27.90;57.10;;;;;;5033381;28;19928;-83
2022/06/08 14:26:17;;;;;;;;;;;27.70;56.90;;;;;;5053216;28;19916;-85
2022/06/08 14:28:45;;;;;;;;;;;27.40;58.10;;;;;;5053207;28;20328;-83
2022/06/08 14:31:14;;;;;;;;;;;27.50;57.10;;;;;;5052899;28;20389;-81
2022/06/08 14:33:40;;;;;;;;;;;27.10;57.60;;;;;;5050932;28;19909;-83
2022/06/08 14:36:06;;;;;;;;;;;26.70;59.00;;;;;;5053655;28;19951;-83
2022/06/08 14:38:33;;;;;;;;;;;28.10;58.90;;;;;;5054688;28;20423;-83
2022/06/08 14:40:59;;;;;;;;;;;29.70;55.70;;;;;;5073041;28;19916;-83
2022/06/08 14:43:25;;;;;;;;;;;32.00;54.20;;;;;;5072654;28;19948;-84
2022/06/08 14:45:52;;;;;;;;;;;33.30;52.70;;;;;;5073378;28;19962;-81
2022/06/08 14:48:25;;;;;;;;;;;34.70;51.40;;;;;;5073030;28;20341;-82
2022/06/08 14:50:52;;;;;;;;;;;34.50;50.60;;;;;;5072816;28;19916;-80
2022/06/08 14:53:20;;;;;;;;;;;33.60;49.90;;;;;;5072599;28;20288;-81